Etusivu
METAR-TAF:

METAR-TAF

Lentoasemat :

Odense, Tanska

Leveyspiiri: 55-29N, Pituuspiiri: 010-20E, korkeus merenpinnasta: 17 m

Tämänhetkinen sää

Tämä raportti tehtiin 2 tuntia ja 4 minuuttia sitten, kello 17.50 UTC
Tuuli 12 kn lännestä/lounaasta
Lämpötila 7°C
Kosteus 93%
Ilmanpaine 1016 hPa
Näkyvyys 10 km tai enemmän
Muutamia pilviä 800 ft:n korkeudessa
Hajanaisia pilviä 1000 ft:n korkeudessa
Pilvistä 2200 ft:n korkeudessa

METAR: EKOD 241750Z 25012KT 9999 FEW008 SCT010 OVC022 07/06 Q1016

Aika: 20:54 (19:54 UTC)

Sääennuste

Tämä raportti tehtiin 7 tuntia ja 30 minuuttia sitten, kello 12.24 UTC
Ennuste voimassa 24. päivästä klo 12 UTC - 24. päivään klo 16 UTC
Tuuli 12 kn lännestä/lounaasta
Näkyvyys 10 km tai enemmän
Hajanaisia pilviä 2000 ft:n korkeudessa
Ajoittain
24. päivästä klo 12 UTC - 24. päivään klo 16 UTC
Näkyvyys: 4000 m
Hajonneita pilviä 800 ft:n korkeudessa
utua

TAF: EKOD 241224Z 2412/2416 25012KT 9999 SCT020 TEMPO 2412/2416 4000 BR BKN008

Säähavainnot ja -ennusteet yli 4000 lentoasemalta (METAR- ja TAF-raportit).

Käytössä olevat sääasemat on merkitty karttaan keltaisilla ja punaisilla pisteillä.

Aseta hiiri pisteen päälle nähdäksesi sääaseman nimen.

Klikkaa sitten nähdäksesi säähavainnot ja -ennusteet.

Kartan vaihtaminen: klikkaa mustalla rastilla varustettuja vihreitä pisteitä, niin voit zoomata sisään; viivalla varustettua vihreää pistettä, niin voit zoomata ulos tai vihreitä nuolia, niin pääset viereisille kartoille.


METAR-TAF: